CMA CGM Turquoise — A8RB5 — position and weather

sailwx.info

Track history (hours):
 
Tides and Currents Weather Stations Pressure Air Temp Water Temp Dewpoint Dewpoint Depression Visibility Wind Speed Wind Dir Waves Ship Positions

CMA CGM Turquoise

Last reported at 2015-Feb-26 10:04 UTC. Time now 2015-Feb-26 23:24 UTC.
Position N 02°15' E 101°55'.

Length 258 m; draft 12.3 m.

Type: Ship (hazmat cat A). MMSI: 636014059.

Date/timePositionNaut miles runAvg speedWind from/ knotsBaromVisibWave heightAir tempDewpointWater temp
2015-Feb-26 10:04N 02°15' E 101°55'1212.9
2015-Feb-26 09:06N 02°07' E 102°05'712.7
2015-Feb-26 08:33N 02°02' E 102°10'2512.1
2015-Feb-26 06:30N 01°49' E 102°31'5512.6
2015-Feb-26 02:10N 01°20' E 103°17'2412.7
2015-Feb-26 00:18N 01°11' E 103°39'1012.9
2015-Feb-25 23:33N 01°11' E 103°49'1413.4
2015-Feb-25 22:31N 01°16' E 104°01'3 2.8
2015-Feb-25 21:29N 01°18' E 104°03'0 0.0
2015-Feb-25 11:23N 01°18' E 104°03'0 0.0
2015-Feb-25 10:28N 01°18' E 104°03'0 0.0
2015-Feb-25 09:10N 01°18' E 104°03'0 0.0
2015-Feb-25 07:15N 01°18' E 104°03'0 0.0
2015-Feb-25 05:26N 01°18' E 104°03'0 0.0
2015-Feb-25 04:19N 01°18' E 104°03'0 0.0
2015-Feb-25 03:22N 01°18' E 104°03'0 0.0
2015-Feb-25 02:16N 01°18' E 104°03'0 0.0
2015-Feb-25 01:28N 01°18' E 104°03'0 0.0
2015-Feb-24 23:30N 01°18' E 104°03'4 4.2
2015-Feb-24 22:33N 01°17' E 104°07'1110.3
2015-Feb-24 21:30N 01°13' E 103°57'1112.0
2015-Feb-24 20:33N 01°09' E 103°47'10 0.3
2015-Feb-23 08:06N 01°12' E 103°37'5 8.6
2015-Feb-23 07:30N 01°10' E 103°42'1010.4
2015-Feb-23 06:33N 01°12' E 103°52'1413.2
2015-Feb-23 05:31N 01°16' E 104°05'  
2015-Feb-19 10:33N 22°07' E 114°19'1512.1
2015-Feb-19 09:17N 22°16' E 114°06'1211.3
2015-Feb-19 08:15N 22°22' E 113°55'7 8.3
2015-Feb-19 07:25N 22°28' E 113°52'0 0.0
2015-Feb-18 16:30N 22°28' E 113°52'0 0.0
2015-Feb-18 15:15N 22°28' E 113°52'4 5.3
2015-Feb-18 14:33N 22°25' E 113°54'11 8.4
2015-Feb-18 13:13N 22°20' E 114°05'911.7
2015-Feb-18 12:28N 22°13' E 114°10'6 6.1
2015-Feb-18 11:33N 22°08' E 114°09'1110.7
2015-Feb-18 10:33N 22°07' E 113°57'1 0.5
2015-Feb-18 08:03N 22°07' E 113°58'8 5.5
2015-Feb-18 06:33N 22°10' E 113°50'1614.8
2015-Feb-18 05:27N 22°26' E 113°45'1312.6
2015-Feb-18 04:22N 22°39' E 113°41'13 0.4
2015-Feb-16 14:24N 22°26' E 113°45'1314.6
2015-Feb-16 13:33N 22°14' E 113°49'  
Track history (hours):
 
Tides and Currents Weather Stations Pressure Air Temp Water Temp Dewpoint Dewpoint Depression Visibility Wind Speed Wind Dir Waves Ship Positions

CMA CGM Turquoise

Last reported at 2015-Feb-26 10:04 UTC. Time now 2015-Feb-26 23:24 UTC.
Position N 02°15' E 101°55'.

Length 258 m; draft 12.3 m.

Type: Ship (hazmat cat A). MMSI: 636014059.

Date/timePositionNaut miles runAvg speedWind from/ knotsBaromVisibWave heightAir tempDewpointWater temp
2015-Feb-26 10:04N 02°15' E 101°55'1212.9
2015-Feb-26 09:06N 02°07' E 102°05'712.7
2015-Feb-26 08:33N 02°02' E 102°10'2512.1
2015-Feb-26 06:30N 01°49' E 102°31'5512.6
2015-Feb-26 02:10N 01°20' E 103°17'2412.7
2015-Feb-26 00:18N 01°11' E 103°39'1012.9
2015-Feb-25 23:33N 01°11' E 103°49'1413.4
2015-Feb-25 22:31N 01°16' E 104°01'3 2.8
2015-Feb-25 21:29N 01°18' E 104°03'0 0.0
2015-Feb-25 11:23N 01°18' E 104°03'0 0.0
2015-Feb-25 10:28N 01°18' E 104°03'0 0.0
2015-Feb-25 09:10N 01°18' E 104°03'0 0.0
2015-Feb-25 07:15N 01°18' E 104°03'0 0.0
2015-Feb-25 05:26N 01°18' E 104°03'0 0.0
2015-Feb-25 04:19N 01°18' E 104°03'0 0.0
2015-Feb-25 03:22N 01°18' E 104°03'0 0.0
2015-Feb-25 02:16N 01°18' E 104°03'0 0.0
2015-Feb-25 01:28N 01°18' E 104°03'0 0.0
2015-Feb-24 23:30N 01°18' E 104°03'4 4.2
2015-Feb-24 22:33N 01°17' E 104°07'1110.3
2015-Feb-24 21:30N 01°13' E 103°57'1112.0
2015-Feb-24 20:33N 01°09' E 103°47'10 0.3
2015-Feb-23 08:06N 01°12' E 103°37'5 8.6
2015-Feb-23 07:30N 01°10' E 103°42'1010.4
2015-Feb-23 06:33N 01°12' E 103°52'1413.2
2015-Feb-23 05:31N 01°16' E 104°05'  
2015-Feb-19 10:33N 22°07' E 114°19'1512.1
2015-Feb-19 09:17N 22°16' E 114°06'1211.3
2015-Feb-19 08:15N 22°22' E 113°55'7 8.3
2015-Feb-19 07:25N 22°28' E 113°52'0 0.0
2015-Feb-18 16:30N 22°28' E 113°52'0 0.0
2015-Feb-18 15:15N 22°28' E 113°52'4 5.3
2015-Feb-18 14:33N 22°25' E 113°54'11 8.4
2015-Feb-18 13:13N 22°20' E 114°05'911.7
2015-Feb-18 12:28N 22°13' E 114°10'6 6.1
2015-Feb-18 11:33N 22°08' E 114°09'1110.7
2015-Feb-18 10:33N 22°07' E 113°57'1 0.5
2015-Feb-18 08:03N 22°07' E 113°58'8 5.5
2015-Feb-18 06:33N 22°10' E 113°50'1614.8
2015-Feb-18 05:27N 22°26' E 113°45'1312.6
2015-Feb-18 04:22N 22°39' E 113°41'13 0.4
2015-Feb-16 14:24N 22°26' E 113°45'1314.6
2015-Feb-16 13:33N 22°14' E 113°49'  

Dump ship's entire track history